sensor_id;sensor_type;location;lat;lon;timestamp;pressure;altitude;pressure_sealevel;temperature;humidity
84318;BME280;74497;51.654;14.238;2024-01-30T00:01:50;101981.91;;;3.82;100.00
84318;BME280;74497;51.654;14.238;2024-01-30T00:04:15;101982.91;;;3.79;100.00
84318;BME280;74497;51.654;14.238;2024-01-30T00:06:43;101975.75;;;3.82;100.00
84318;BME280;74497;51.654;14.238;2024-01-30T00:09:09;101974.03;;;3.80;100.00
84318;BME280;74497;51.654;14.238;2024-01-30T00:11:39;101973.53;;;3.72;100.00
84318;BME280;74497;51.654;14.238;2024-01-30T00:14:05;101974.28;;;3.76;100.00
84318;BME280;74497;51.654;14.238;2024-01-30T00:16:31;101978.06;;;3.70;100.00
84318;BME280;74497;51.654;14.238;2024-01-30T00:18:57;101970.13;;;3.70;100.00
84318;BME280;74497;51.654;14.238;2024-01-30T00:21:23;101972.09;;;3.65;100.00
84318;BME280;74497;51.654;14.238;2024-01-30T00:23:49;101974.16;;;3.59;100.00
84318;BME280;74497;51.654;14.238;2024-01-30T00:26:18;101978.59;;;3.58;100.00
84318;BME280;74497;51.654;14.238;2024-01-30T00:28:43;101978.59;;;3.58;100.00
84318;BME280;74497;51.654;14.238;2024-01-30T00:31:09;101973.59;;;3.52;100.00
84318;BME280;74497;51.654;14.238;2024-01-30T00:33:41;101972.50;;;3.56;100.00
84318;BME280;74497;51.654;14.238;2024-01-30T00:36:08;101971.59;;;3.57;100.00
84318;BME280;74497;51.654;14.238;2024-01-30T00:38:34;101961.75;;;3.61;100.00
84318;BME280;74497;51.654;14.238;2024-01-30T00:41:00;101969.81;;;3.58;100.00
84318;BME280;74497;51.654;14.238;2024-01-30T00:43:27;101973.44;;;3.55;100.00
84318;BME280;74497;51.654;14.238;2024-01-30T00:45:53;101967.53;;;3.50;100.00
84318;BME280;74497;51.654;14.238;2024-01-30T00:48:19;101971.22;;;3.46;100.00
84318;BME280;74497;51.654;14.238;2024-01-30T00:50:45;101965.78;;;3.49;100.00
84318;BME280;74497;51.654;14.238;2024-01-30T00:53:11;101966.91;;;3.43;100.00
84318;BME280;74497;51.654;14.238;2024-01-30T00:55:37;101960.00;;;3.41;100.00
84318;BME280;74497;51.654;14.238;2024-01-30T00:58:03;101968.69;;;3.43;100.00
84318;BME280;74497;51.654;14.238;2024-01-30T01:00:28;101962.44;;;3.45;100.00
84318;BME280;74497;51.654;14.238;2024-01-30T01:02:55;101970.56;;;3.41;100.00
84318;BME280;74497;51.654;14.238;2024-01-30T01:05:21;101963.38;;;3.44;100.00
84318;BME280;74497;51.654;14.238;2024-01-30T01:07:46;101968.69;;;3.43;100.00
84318;BME280;74497;51.654;14.238;2024-01-30T01:10:16;101967.00;;;3.42;100.00
84318;BME280;74497;51.654;14.238;2024-01-30T01:12:42;101967.13;;;3.39;100.00
84318;BME280;74497;51.654;14.238;2024-01-30T01:15:08;101964.84;;;3.31;100.00
84318;BME280;74497;51.654;14.238;2024-01-30T01:17:38;101960.53;;;3.29;100.00
84318;BME280;74497;51.654;14.238;2024-01-30T01:20:05;101958.97;;;3.24;100.00
84318;BME280;74497;51.654;14.238;2024-01-30T01:22:32;101954.66;;;3.22;100.00
84318;BME280;74497;51.654;14.238;2024-01-30T01:25:01;101953.81;;;3.21;100.00
84318;BME280;74497;51.654;14.238;2024-01-30T01:27:27;101952.09;;;3.20;100.00
84318;BME280;74497;51.654;14.238;2024-01-30T01:29:53;101952.22;;;3.17;100.00
84318;BME280;74497;51.654;14.238;2024-01-30T01:32:19;101940.75;;;3.18;100.00
84318;BME280;74497;51.654;14.238;2024-01-30T01:34:45;101952.38;;;3.14;100.00
84318;BME280;74497;51.654;14.238;2024-01-30T01:37:10;101946.75;;;3.22;100.00
84318;BME280;74497;51.654;14.238;2024-01-30T01:39:36;101945.09;;;3.19;100.00
84318;BME280;74497;51.654;14.238;2024-01-30T01:42:02;101945.97;;;3.20;100.00
84318;BME280;74497;51.654;14.238;2024-01-30T01:44:27;101944.19;;;3.20;100.00
84318;BME280;74497;51.654;14.238;2024-01-30T01:46:54;101942.50;;;3.18;100.00
84318;BME280;74497;51.654;14.238;2024-01-30T01:49:25;101941.53;;;3.20;100.00
84318;BME280;74497;51.654;14.238;2024-01-30T01:51:54;101941.63;;;3.19;100.00
84318;BME280;74497;51.654;14.238;2024-01-30T01:54:22;101933.69;;;3.19;100.00
84318;BME280;74497;51.654;14.238;2024-01-30T01:56:49;101939.81;;;3.19;100.00
84318;BME280;74497;51.654;14.238;2024-01-30T01:59:15;101933.88;;;3.14;100.00
84318;BME280;74497;51.654;14.238;2024-01-30T02:01:41;101930.25;;;3.17;100.00
84318;BME280;74497;51.654;14.238;2024-01-30T02:04:07;101929.38;;;3.16;100.00
84318;BME280;74497;51.654;14.238;2024-01-30T02:06:34;101928.69;;;3.13;100.00
84318;BME280;74497;51.654;14.238;2024-01-30T02:09:00;101921.72;;;3.10;100.00
84318;BME280;74497;51.654;14.238;2024-01-30T02:11:26;101927.69;;;3.15;100.00
84318;BME280;74497;51.654;14.238;2024-01-30T02:13:52;101927.94;;;3.09;100.00
84318;BME280;74497;51.654;14.238;2024-01-30T02:16:18;101925.03;;;3.15;100.00
84318;BME280;74497;51.654;14.238;2024-01-30T02:18:43;101927.81;;;3.12;100.00
84318;BME280;74497;51.654;14.238;2024-01-30T02:21:16;101930.59;;;3.09;100.00
84318;BME280;74497;51.654;14.238;2024-01-30T02:23:43;101927.94;;;3.09;100.00
84318;BME280;74497;51.654;14.238;2024-01-30T02:26:10;101920.03;;;3.09;100.00
84318;BME280;74497;51.654;14.238;2024-01-30T02:28:36;101922.59;;;3.11;100.00
84318;BME280;74497;51.654;14.238;2024-01-30T02:31:02;101922.66;;;3.09;100.00
84318;BME280;74497;51.654;14.238;2024-01-30T02:33:28;101924.19;;;3.15;100.00
84318;BME280;74497;51.654;14.238;2024-01-30T02:35:53;101933.88;;;3.14;100.00
84318;BME280;74497;51.654;14.238;2024-01-30T02:38:19;101929.53;;;3.13;100.00
84318;BME280;74497;51.654;14.238;2024-01-30T02:40:45;101925.09;;;3.14;100.00
84318;BME280;74497;51.654;14.238;2024-01-30T02:43:10;101922.31;;;3.17;100.00
84318;BME280;74497;51.654;14.238;2024-01-30T02:45:36;101926.91;;;3.13;100.00
84318;BME280;74497;51.654;14.238;2024-01-30T02:48:02;101929.25;;;3.19;100.00
84318;BME280;74497;51.654;14.238;2024-01-30T02:50:27;101922.28;;;3.18;100.00
84318;BME280;74497;51.654;14.238;2024-01-30T02:52:53;101932.69;;;3.21;100.00
84318;BME280;74497;51.654;14.238;2024-01-30T02:55:18;101929.13;;;3.22;100.00
84318;BME280;74497;51.654;14.238;2024-01-30T02:57:44;101931.75;;;3.22;100.00
84318;BME280;74497;51.654;14.238;2024-01-30T03:00:10;101921.84;;;3.28;100.00
84318;BME280;74497;51.654;14.238;2024-01-30T03:02:36;101921.34;;;3.19;100.00
84318;BME280;74497;51.654;14.238;2024-01-30T03:05:03;101927.28;;;3.24;100.00
84318;BME280;74497;51.654;14.238;2024-01-30T03:07:31;101927.56;;;3.18;100.00
84318;BME280;74497;51.654;14.238;2024-01-30T03:09:57;101930.97;;;3.20;100.00
84318;BME280;74497;51.654;14.238;2024-01-30T03:12:22;101925.09;;;3.14;100.00
84318;BME280;74497;51.654;14.238;2024-01-30T03:14:48;101928.72;;;3.11;100.00
84318;BME280;74497;51.654;14.238;2024-01-30T03:17:15;101925.88;;;3.16;100.00
84318;BME280;74497;51.654;14.238;2024-01-30T03:19:40;101931.94;;;3.18;100.00
84318;BME280;74497;51.654;14.238;2024-01-30T03:22:06;101924.31;;;3.12;100.00
84318;BME280;74497;51.654;14.238;2024-01-30T03:24:32;101922.66;;;3.09;100.00
84318;BME280;74497;51.654;14.238;2024-01-30T03:26:57;101928.78;;;3.10;100.00
84318;BME280;74497;51.654;14.238;2024-01-30T03:29:23;101929.72;;;3.09;100.00
84318;BME280;74497;51.654;14.238;2024-01-30T03:31:49;101932.09;;;3.15;100.00
84318;BME280;74497;51.654;14.238;2024-01-30T03:34:14;101919.09;;;3.10;100.00
84318;BME280;74497;51.654;14.238;2024-01-30T03:36:40;101926.97;;;3.12;100.00
84318;BME280;74497;51.654;14.238;2024-01-30T03:39:06;101920.03;;;3.09;100.00
84318;BME280;74497;51.654;14.238;2024-01-30T03:41:31;101924.59;;;3.06;100.00
84318;BME280;74497;51.654;14.238;2024-01-30T03:43:57;101921.81;;;3.09;100.00
84318;BME280;74497;51.654;14.238;2024-01-30T03:46:23;101914.94;;;3.05;100.00
84318;BME280;74497;51.654;14.238;2024-01-30T03:48:49;101908.69;;;3.07;100.00
84318;BME280;74497;51.654;14.238;2024-01-30T03:51:15;101906.25;;;3.03;100.00
84318;BME280;74497;51.654;14.238;2024-01-30T03:53:42;101915.94;;;3.02;100.00
84318;BME280;74497;51.654;14.238;2024-01-30T03:56:08;101909.03;;;3.00;100.00
84318;BME280;74497;51.654;14.238;2024-01-30T03:58:34;101913.38;;;3.01;100.00
84318;BME280;74497;51.654;14.238;2024-01-30T04:01:00;101920.56;;;2.97;100.00
84318;BME280;74497;51.654;14.238;2024-01-30T04:03:25;101913.63;;;2.94;100.00
84318;BME280;74497;51.654;14.238;2024-01-30T04:05:52;101912.91;;;2.91;100.00
84318;BME280;74497;51.654;14.238;2024-01-30T04:08:17;101912.13;;;2.89;100.00
84318;BME280;74497;51.654;14.238;2024-01-30T04:10:43;101907.78;;;2.88;100.00
84318;BME280;74497;51.654;14.238;2024-01-30T04:13:09;101906.69;;;2.92;100.00
84318;BME280;74497;51.654;14.238;2024-01-30T04:15:34;101916.34;;;2.93;100.00
84318;BME280;74497;51.654;14.238;2024-01-30T04:18:00;101918.25;;;2.89;100.00
84318;BME280;74497;51.654;14.238;2024-01-30T04:20:26;101913.63;;;2.94;100.00
84318;BME280;74497;51.654;14.238;2024-01-30T04:22:52;101916.47;;;2.90;100.00
84318;BME280;74497;51.654;14.238;2024-01-30T04:25:17;101918.75;;;2.97;100.00
84318;BME280;74497;51.654;14.238;2024-01-30T04:27:43;101909.31;;;2.92;100.00
84318;BME280;74497;51.654;14.238;2024-01-30T04:30:09;101907.09;;;2.83;100.00
84318;BME280;74497;51.654;14.238;2024-01-30T04:32:35;101908.03;;;2.82;100.00
84318;BME280;74497;51.654;14.238;2024-01-30T04:35:02;101912.44;;;2.81;100.00
84318;BME280;74497;51.654;14.238;2024-01-30T04:37:28;101912.38;;;2.83;100.00
84318;BME280;74497;51.654;14.238;2024-01-30T04:39:54;101917.59;;;2.84;100.00
84318;BME280;74497;51.654;14.238;2024-01-30T04:42:19;101910.53;;;2.85;100.00
84318;BME280;74497;51.654;14.238;2024-01-30T04:44:45;101916.72;;;2.84;100.00
84318;BME280;74497;51.654;14.238;2024-01-30T04:47:11;101917.66;;;2.83;100.00
84318;BME280;74497;51.654;14.238;2024-01-30T04:49:40;101912.38;;;2.83;100.00
84318;BME280;74497;51.654;14.238;2024-01-30T04:52:07;101916.66;;;2.85;100.00
84318;BME280;74497;51.654;14.238;2024-01-30T04:54:34;101912.03;;;2.90;100.00
84318;BME280;74497;51.654;14.238;2024-01-30T04:57:00;101912.13;;;2.89;100.00
84318;BME280;74497;51.654;14.238;2024-01-30T04:59:26;101908.63;;;2.88;100.00
84318;BME280;74497;51.654;14.238;2024-01-30T05:01:51;101901.69;;;2.86;100.00
84318;BME280;74497;51.654;14.238;2024-01-30T05:04:17;101903.28;;;2.90;100.00
84318;BME280;74497;51.654;14.238;2024-01-30T05:06:43;101903.41;;;2.87;100.00
84318;BME280;74497;51.654;14.238;2024-01-30T05:09:09;101904.13;;;2.90;100.00
84318;BME280;74497;51.654;14.238;2024-01-30T05:11:41;101895.75;;;2.81;100.00
84318;BME280;74497;51.654;14.238;2024-01-30T05:14:07;101898.34;;;2.82;100.00
84318;BME280;74497;51.654;14.238;2024-01-30T05:16:32;101899.13;;;2.84;100.00
84318;BME280;74497;51.654;14.238;2024-01-30T05:18:58;101901.69;;;2.86;100.00
84318;BME280;74497;51.654;14.238;2024-01-30T05:21:24;101901.69;;;2.86;100.00
84318;BME280;74497;51.654;14.238;2024-01-30T05:23:50;101899.00;;;2.87;100.00
84318;BME280;74497;51.654;14.238;2024-01-30T05:26:15;101892.88;;;2.87;100.00
84318;BME280;74497;51.654;14.238;2024-01-30T05:28:41;101902.50;;;2.88;100.00
84318;BME280;74497;51.654;14.238;2024-01-30T05:31:08;101898.13;;;2.87;100.00
84318;BME280;74497;51.654;14.238;2024-01-30T05:33:33;101895.25;;;2.93;100.00
84318;BME280;74497;51.654;14.238;2024-01-30T05:35:59;101897.28;;;2.86;100.00
84318;BME280;74497;51.654;14.238;2024-01-30T05:38:25;101899.19;;;2.83;100.00
84318;BME280;74497;51.654;14.238;2024-01-30T05:40:50;101899.97;;;2.85;100.00
84318;BME280;74497;51.654;14.238;2024-01-30T05:43:16;101900.81;;;2.85;100.00
84318;BME280;74497;51.654;14.238;2024-01-30T05:45:42;101895.03;;;2.77;100.00
84318;BME280;74497;51.654;14.238;2024-01-30T05:48:07;101903.78;;;2.78;100.00
84318;BME280;74497;51.654;14.238;2024-01-30T05:50:33;101897.06;;;2.70;100.00
84318;BME280;74497;51.654;14.238;2024-01-30T05:52:59;101902.09;;;2.77;100.00
84318;BME280;74497;51.654;14.238;2024-01-30T05:55:24;101906.69;;;2.71;100.00
84318;BME280;74497;51.654;14.238;2024-01-30T05:57:50;101903.97;;;2.73;100.00
84318;BME280;74497;51.654;14.238;2024-01-30T06:00:17;101904.72;;;2.77;100.00
84318;BME280;74497;51.654;14.238;2024-01-30T06:02:43;101902.00;;;2.78;100.00
84318;BME280;74497;51.654;14.238;2024-01-30T06:05:09;101911.72;;;2.78;100.00
84318;BME280;74497;51.654;14.238;2024-01-30T06:07:34;101899.44;;;2.77;100.00
84318;BME280;74497;51.654;14.238;2024-01-30T06:10:00;101901.16;;;2.78;100.00
84318;BME280;74497;51.654;14.238;2024-01-30T06:12:28;101893.31;;;2.76;100.00
84318;BME280;74497;51.654;14.238;2024-01-30T06:14:54;101896.72;;;2.78;100.00
84318;BME280;74497;51.654;14.238;2024-01-30T06:17:25;101891.38;;;2.80;100.00
84318;BME280;74497;51.654;14.238;2024-01-30T06:19:50;101884.34;;;2.80;100.00
84318;BME280;74497;51.654;14.238;2024-01-30T06:22:16;101884.47;;;2.77;100.00
84318;BME280;74497;51.654;14.238;2024-01-30T06:24:42;101880.19;;;2.75;100.00
84318;BME280;74497;51.654;14.238;2024-01-30T06:27:10;101886.19;;;2.78;100.00
84318;BME280;74497;51.654;14.238;2024-01-30T06:29:36;101886.19;;;2.78;100.00
84318;BME280;74497;51.654;14.238;2024-01-30T06:32:02;101882.50;;;2.82;100.00
84318;BME280;74497;51.654;14.238;2024-01-30T06:34:27;101882.50;;;2.82;100.00
84318;BME280;74497;51.654;14.238;2024-01-30T06:36:53;101883.19;;;2.86;100.00
84318;BME280;74497;51.654;14.238;2024-01-30T06:39:18;101878.81;;;2.86;100.00
84318;BME280;74497;51.654;14.238;2024-01-30T06:41:44;101888.47;;;2.86;100.00
84318;BME280;74497;51.654;14.238;2024-01-30T06:44:12;101887.44;;;2.90;100.00
84318;BME280;74497;51.654;14.238;2024-01-30T06:46:38;101885.53;;;2.93;100.00
84318;BME280;74497;51.654;14.238;2024-01-30T06:49:04;101886.50;;;2.91;100.00
84318;BME280;74497;51.654;14.238;2024-01-30T06:51:31;101892.63;;;2.91;100.00
84318;BME280;74497;51.654;14.238;2024-01-30T06:53:57;101893.31;;;2.96;100.00
84318;BME280;74497;51.654;14.238;2024-01-30T06:56:22;101890.47;;;3.01;100.00
84318;BME280;74497;51.654;14.238;2024-01-30T06:58:49;101894.81;;;3.02;100.00
84318;BME280;74497;51.654;14.238;2024-01-30T07:01:15;101900.84;;;3.06;100.00
84318;BME280;74497;51.654;14.238;2024-01-30T07:03:40;101901.75;;;3.05;100.00
84318;BME280;74497;51.654;14.238;2024-01-30T07:06:06;101897.28;;;3.07;100.00
84318;BME280;74497;51.654;14.238;2024-01-30T07:08:31;101898.50;;;3.18;100.00
84318;BME280;74497;51.654;14.238;2024-01-30T07:10:57;101898.38;;;3.21;100.00
84318;BME280;74497;51.654;14.238;2024-01-30T07:13:23;101902.94;;;3.37;100.00
84318;BME280;74497;51.654;14.238;2024-01-30T07:15:48;101904.44;;;3.42;100.00
84318;BME280;74497;51.654;14.238;2024-01-30T07:18:14;101905.03;;;3.49;100.00
84318;BME280;74497;51.654;14.238;2024-01-30T07:20:40;101901.50;;;3.50;100.00
84318;BME280;74497;51.654;14.238;2024-01-30T07:23:15;101905.19;;;3.46;100.00
84318;BME280;74497;51.654;14.238;2024-01-30T07:25:46;101897.34;;;3.44;100.00
84318;BME280;74497;51.654;14.238;2024-01-30T07:28:14;101894.25;;;3.53;100.00
84318;BME280;74497;51.654;14.238;2024-01-30T07:30:42;101889.84;;;3.54;100.00
84318;BME280;74497;51.654;14.238;2024-01-30T07:33:08;101887.84;;;3.59;100.00
84318;BME280;74497;51.654;14.238;2024-01-30T07:35:35;101889.63;;;3.59;100.00
84318;BME280;74497;51.654;14.238;2024-01-30T07:38:00;101899.84;;;3.66;100.00
84318;BME280;74497;51.654;14.238;2024-01-30T07:40:26;101890.91;;;3.69;100.00
84318;BME280;74497;51.654;14.238;2024-01-30T07:42:53;101893.81;;;3.82;100.00
84318;BME280;74497;51.654;14.238;2024-01-30T07:45:19;101891.19;;;3.82;100.00
84318;BME280;74497;51.654;14.238;2024-01-30T07:47:51;101897.19;;;3.85;100.00
84318;BME280;74497;51.654;14.238;2024-01-30T07:50:17;101884.19;;;3.80;100.00
84318;BME280;74497;51.654;14.238;2024-01-30T07:52:43;101892.34;;;3.76;100.00
84318;BME280;74497;51.654;14.238;2024-01-30T07:55:09;101887.69;;;3.81;100.00
84318;BME280;74497;51.654;14.238;2024-01-30T07:57:35;101886.06;;;3.78;100.00
84318;BME280;74497;51.654;14.238;2024-01-30T08:00:01;101887.63;;;3.83;100.00
84318;BME280;74497;51.654;14.238;2024-01-30T08:02:28;101894.75;;;3.80;100.00
84318;BME280;74497;51.654;14.238;2024-01-30T08:04:54;101880.47;;;3.85;100.00
84318;BME280;74497;51.654;14.238;2024-01-30T08:07:20;101889.34;;;3.84;100.00
84318;BME280;74497;51.654;14.238;2024-01-30T08:09:47;101891.78;;;3.88;100.00
84318;BME280;74497;51.654;14.238;2024-01-30T08:12:13;101885.59;;;3.88;100.00
84318;BME280;74497;51.654;14.238;2024-01-30T08:14:39;101880.03;;;3.94;100.00
84318;BME280;74497;51.654;14.238;2024-01-30T08:17:06;101876.97;;;4.03;100.00
84318;BME280;74497;51.654;14.238;2024-01-30T08:19:33;101882.16;;;4.04;100.00
84318;BME280;74497;51.654;14.238;2024-01-30T08:21:59;101877.81;;;4.03;100.00
84318;BME280;74497;51.654;14.238;2024-01-30T08:24:25;101884.22;;;4.17;100.00
84318;BME280;74497;51.654;14.238;2024-01-30T08:26:50;101883.75;;;4.26;100.00
84318;BME280;74497;51.654;14.238;2024-01-30T08:29:16;101886.81;;;4.36;100.00
84318;BME280;74497;51.654;14.238;2024-01-30T08:31:42;101882.78;;;4.46;100.00
84318;BME280;74497;51.654;14.238;2024-01-30T08:34:07;101885.44;;;4.63;100.00
84318;BME280;74497;51.654;14.238;2024-01-30T08:36:33;101884.81;;;4.75;100.00
84318;BME280;74497;51.654;14.238;2024-01-30T08:38:59;101880.91;;;4.82;100.00
84318;BME280;74497;51.654;14.238;2024-01-30T08:41:24;101875.78;;;4.97;100.00
84318;BME280;74497;51.654;14.238;2024-01-30T08:43:51;101873.66;;;5.03;100.00
84318;BME280;74497;51.654;14.238;2024-01-30T08:46:20;101873.69;;;5.19;100.00
84318;BME280;74497;51.654;14.238;2024-01-30T08:48:46;101862.78;;;5.25;100.00
84318;BME280;74497;51.654;14.238;2024-01-30T08:51:13;101862.53;;;5.30;100.00
84318;BME280;74497;51.654;14.238;2024-01-30T08:53:39;101873.81;;;5.33;100.00
84318;BME280;74497;51.654;14.238;2024-01-30T08:56:06;101874.19;;;5.59;100.00
84318;BME280;74497;51.654;14.238;2024-01-30T08:58:31;101877.25;;;5.51;100.00
84318;BME280;74497;51.654;14.238;2024-01-30T09:00:58;101879.47;;;5.43;100.00
84318;BME280;74497;51.654;14.238;2024-01-30T09:03:24;101874.94;;;5.45;100.00
84318;BME280;74497;51.654;14.238;2024-01-30T09:05:49;101876.06;;;5.57;100.00
84318;BME280;74497;51.654;14.238;2024-01-30T09:08:15;101878.47;;;5.61;100.00
84318;BME280;74497;51.654;14.238;2024-01-30T09:10:41;101875.22;;;5.72;100.00
84318;BME280;74497;51.654;14.238;2024-01-30T09:13:06;101876.34;;;5.68;100.00
84318;BME280;74497;51.654;14.238;2024-01-30T09:15:32;101877.63;;;5.77;100.00
84318;BME280;74497;51.654;14.238;2024-01-30T09:17:57;101880.50;;;5.72;100.00
84318;BME280;74497;51.654;14.238;2024-01-30T09:20:23;101881.97;;;5.62;100.00
84318;BME280;74497;51.654;14.238;2024-01-30T09:22:49;101886.00;;;5.69;100.00
84318;BME280;74497;51.654;14.238;2024-01-30T09:25:15;101880.44;;;5.74;100.00
84318;BME280;74497;51.654;14.238;2024-01-30T09:27:40;101886.75;;;5.71;100.00
84318;BME280;74497;51.654;14.238;2024-01-30T09:30:06;101885.56;;;5.77;100.00
84318;BME280;74497;51.654;14.238;2024-01-30T09:32:32;101881.66;;;5.68;100.00
84318;BME280;74497;51.654;14.238;2024-01-30T09:34:58;101884.97;;;5.72;100.00
84318;BME280;74497;51.654;14.238;2024-01-30T09:37:24;101883.34;;;5.69;100.00
84318;BME280;74497;51.654;14.238;2024-01-30T09:39:49;101881.81;;;5.81;100.00
84318;BME280;74497;51.654;14.238;2024-01-30T09:44:51;101886.97;;;6.15;100.00
84318;BME280;74497;51.654;14.238;2024-01-30T09:47:17;101887.19;;;6.27;100.00
84318;BME280;74497;51.654;14.238;2024-01-30T09:49:43;101885.34;;;6.13;100.00
84318;BME280;74497;51.654;14.238;2024-01-30T09:52:09;101887.25;;;6.11;100.00
84318;BME280;74497;51.654;14.238;2024-01-30T09:54:34;101882.78;;;6.11;100.00
84318;BME280;74497;51.654;14.238;2024-01-30T09:57:01;101887.16;;;6.12;100.00
84318;BME280;74497;51.654;14.238;2024-01-30T09:59:26;101886.78;;;6.18;100.00
84318;BME280;74497;51.654;14.238;2024-01-30T10:01:52;101881.50;;;6.18;100.00
84318;BME280;74497;51.654;14.238;2024-01-30T10:04:18;101882.00;;;6.25;100.00
84318;BME280;74497;51.654;14.238;2024-01-30T10:06:44;101862.03;;;6.34;100.00
84318;BME280;74497;51.654;14.238;2024-01-30T10:09:09;101875.97;;;6.37;100.00
84318;BME280;74497;51.654;14.238;2024-01-30T10:11:38;101881.59;;;6.47;100.00
84318;BME280;74497;51.654;14.238;2024-01-30T10:14:03;101871.47;;;6.54;100.00
84318;BME280;74497;51.654;14.238;2024-01-30T10:16:29;101865.69;;;6.61;100.00
84318;BME280;74497;51.654;14.238;2024-01-30T10:18:55;101865.03;;;6.58;100.00
84318;BME280;74497;51.654;14.238;2024-01-30T10:21:21;101866.00;;;6.57;100.00
84318;BME280;74497;51.654;14.238;2024-01-30T10:23:47;101873.38;;;6.52;100.00
84318;BME280;74497;51.654;14.238;2024-01-30T10:26:12;101867.69;;;6.58;100.00
84318;BME280;74497;51.654;14.238;2024-01-30T10:28:39;101864.19;;;6.57;100.00
84318;BME280;74497;51.654;14.238;2024-01-30T10:31:04;101858.41;;;6.65;100.00
84318;BME280;74497;51.654;14.238;2024-01-30T10:33:30;101854.00;;;6.80;100.00
84318;BME280;74497;51.654;14.238;2024-01-30T10:36:05;101851.34;;;6.80;100.00
84318;BME280;74497;51.654;14.238;2024-01-30T10:38:32;101856.63;;;6.80;100.00
84318;BME280;74497;51.654;14.238;2024-01-30T10:40:59;101844.91;;;6.84;100.00
84318;BME280;74497;51.654;14.238;2024-01-30T10:43:31;101842.34;;;6.96;100.00
84318;BME280;74497;51.654;14.238;2024-01-30T10:46:08;101836.84;;;6.99;100.00
84318;BME280;74497;51.654;14.238;2024-01-30T10:48:36;101830.88;;;7.10;100.00
84318;BME280;74497;51.654;14.238;2024-01-30T10:51:09;101841.41;;;7.12;100.00
84318;BME280;74497;51.654;14.238;2024-01-30T10:53:35;101834.69;;;7.20;100.00
84318;BME280;74497;51.654;14.238;2024-01-30T10:56:03;101832.28;;;7.30;100.00
84318;BME280;74497;51.654;14.238;2024-01-30T10:58:29;101825.63;;;7.37;100.00
84318;BME280;74497;51.654;14.238;2024-01-30T11:00:55;101828.22;;;7.39;100.00
84318;BME280;74497;51.654;14.238;2024-01-30T11:03:22;101832.72;;;7.65;100.00
84318;BME280;74497;51.654;14.238;2024-01-30T11:05:51;101832.00;;;7.90;100.00
84318;BME280;74497;51.654;14.238;2024-01-30T11:08:24;101819.44;;;7.92;100.00
84318;BME280;74497;51.654;14.238;2024-01-30T11:10:55;101825.09;;;8.00;100.00
84318;BME280;74497;51.654;14.238;2024-01-30T11:13:22;101818.63;;;8.04;100.00
84318;BME280;74497;51.654;14.238;2024-01-30T11:15:48;101815.53;;;7.98;100.00
84318;BME280;74497;51.654;14.238;2024-01-30T11:18:24;101817.13;;;8.00;98.25
84318;BME280;74497;51.654;14.238;2024-01-30T11:20:50;101821.19;;;8.06;98.39
84318;BME280;74497;51.654;14.238;2024-01-30T11:23:16;101810.22;;;7.98;98.67
84318;BME280;74497;51.654;14.238;2024-01-30T11:25:43;101810.38;;;7.95;100.00
84318;BME280;74497;51.654;14.238;2024-01-30T11:28:16;101810.06;;;7.86;100.00
84318;BME280;74497;51.654;14.238;2024-01-30T11:30:42;101810.75;;;7.76;99.98
84318;BME280;74497;51.654;14.238;2024-01-30T11:33:12;101802.91;;;7.87;100.00
84318;BME280;74497;51.654;14.238;2024-01-30T11:35:42;101795.94;;;7.99;100.00
84318;BME280;74497;51.654;14.238;2024-01-30T11:38:09;101807.88;;;8.06;100.00
84318;BME280;74497;51.654;14.238;2024-01-30T11:40:37;101800.97;;;8.03;100.00
84318;BME280;74497;51.654;14.238;2024-01-30T11:43:05;101797.00;;;7.96;100.00
84318;BME280;74497;51.654;14.238;2024-01-30T11:45:32;101791.28;;;8.02;100.00
84318;BME280;74497;51.654;14.238;2024-01-30T11:47:58;101790.63;;;7.99;99.80
84318;BME280;74497;51.654;14.238;2024-01-30T11:50:31;101788.63;;;8.02;100.00
84318;BME280;74497;51.654;14.238;2024-01-30T11:52:57;101790.22;;;8.05;100.00
84318;BME280;74497;51.654;14.238;2024-01-30T11:55:23;101790.31;;;8.03;99.62
84318;BME280;74497;51.654;14.238;2024-01-30T11:57:49;101785.19;;;8.00;100.00
84318;BME280;74497;51.654;14.238;2024-01-30T12:00:16;101784.03;;;8.04;100.00
84318;BME280;74497;51.654;14.238;2024-01-30T12:02:43;101776.81;;;8.06;100.00
84318;BME280;74497;51.654;14.238;2024-01-30T12:05:09;101777.13;;;8.02;100.00
84318;BME280;74497;51.654;14.238;2024-01-30T12:07:37;101779.38;;;8.08;100.00
84318;BME280;74497;51.654;14.238;2024-01-30T12:10:03;101776.94;;;8.18;100.00
84318;BME280;74497;51.654;14.238;2024-01-30T12:12:31;101770.66;;;8.19;100.00
84318;BME280;74497;51.654;14.238;2024-01-30T12:14:56;101765.34;;;8.19;100.00
84318;BME280;74497;51.654;14.238;2024-01-30T12:17:30;101765.97;;;8.09;100.00
84318;BME280;74497;51.654;14.238;2024-01-30T12:20:06;101767.56;;;8.12;100.00
84318;BME280;74497;51.654;14.238;2024-01-30T12:22:46;101763.31;;;8.09;100.00
84318;BME280;74497;51.654;14.238;2024-01-30T12:25:13;101758.53;;;8.15;100.00
84318;BME280;74497;51.654;14.238;2024-01-30T12:27:42;101747.13;;;8.12;100.00
84318;BME280;74497;51.654;14.238;2024-01-30T12:30:10;101742.66;;;8.13;100.00
84318;BME280;74497;51.654;14.238;2024-01-30T12:32:37;101749.47;;;8.17;100.00
84318;BME280;74497;51.654;14.238;2024-01-30T12:35:07;101740.44;;;8.20;100.00
84318;BME280;74497;51.654;14.238;2024-01-30T12:37:33;101740.75;;;8.15;98.14
84318;BME280;74497;51.654;14.238;2024-01-30T12:39:59;101741.47;;;8.04;98.21